sensor_id;sensor_type;location;lat;lon;timestamp;pressure;altitude;pressure_sealevel;temperature
55038;BMP280;40937;53.594;10.034;2023-08-08T00:01:44;100950.34;;;14.67
55038;BMP280;40937;53.594;10.034;2023-08-08T00:04:11;100962.84;;;14.71
55038;BMP280;40937;53.594;10.034;2023-08-08T00:06:39;100947.22;;;14.75
55038;BMP280;40937;53.594;10.034;2023-08-08T00:09:06;100945.03;;;14.72
55038;BMP280;40937;53.594;10.034;2023-08-08T00:11:34;100943.19;;;14.72
55038;BMP280;40937;53.594;10.034;2023-08-08T00:14:02;100938.72;;;14.78
55038;BMP280;40937;53.594;10.034;2023-08-08T00:16:30;100950.22;;;14.51
55038;BMP280;40937;53.594;10.034;2023-08-08T00:18:57;100936.19;;;14.56
55038;BMP280;40937;53.594;10.034;2023-08-08T00:21:25;100923.16;;;14.55
55038;BMP280;40937;53.594;10.034;2023-08-08T00:23:52;100941.19;;;14.52
55038;BMP280;40937;53.594;10.034;2023-08-08T00:26:19;100944.16;;;14.56
55038;BMP280;40937;53.594;10.034;2023-08-08T00:28:47;100940.69;;;14.56
55038;BMP280;40937;53.594;10.034;2023-08-08T00:31:16;100930.13;;;14.61
55038;BMP280;40937;53.594;10.034;2023-08-08T00:33:45;100926.00;;;14.43
55038;BMP280;40937;53.594;10.034;2023-08-08T00:36:13;100920.72;;;14.48
55038;BMP280;40937;53.594;10.034;2023-08-08T00:38:40;100912.47;;;14.44
55038;BMP280;40937;53.594;10.034;2023-08-08T00:41:07;100912.53;;;14.55
55038;BMP280;40937;53.594;10.034;2023-08-08T00:43:35;100915.69;;;14.51
55038;BMP280;40937;53.594;10.034;2023-08-08T00:46:02;100916.78;;;14.56
55038;BMP280;40937;53.594;10.034;2023-08-08T00:48:32;100910.91;;;14.48
55038;BMP280;40937;53.594;10.034;2023-08-08T00:50:59;100927.09;;;14.52
55038;BMP280;40937;53.594;10.034;2023-08-08T00:53:27;100905.59;;;14.48
55038;BMP280;40937;53.594;10.034;2023-08-08T00:55:59;100898.69;;;14.52
55038;BMP280;40937;53.594;10.034;2023-08-08T00:58:27;100906.66;;;14.52
55038;BMP280;40937;53.594;10.034;2023-08-08T01:00:54;100899.28;;;14.55
55038;BMP280;40937;53.594;10.034;2023-08-08T01:03:25;100886.78;;;14.50
55038;BMP280;40937;53.594;10.034;2023-08-08T01:05:59;100898.59;;;14.37
55038;BMP280;40937;53.594;10.034;2023-08-08T01:08:36;100892.28;;;14.43
55038;BMP280;40937;53.594;10.034;2023-08-08T01:11:06;100901.09;;;14.49
55038;BMP280;40937;53.594;10.034;2023-08-08T01:13:34;100901.88;;;14.44
55038;BMP280;40937;53.594;10.034;2023-08-08T01:16:03;100905.81;;;14.42
55038;BMP280;40937;53.594;10.034;2023-08-08T01:18:32;100903.41;;;14.40
55038;BMP280;40937;53.594;10.034;2023-08-08T01:21:03;100904.50;;;14.44
55038;BMP280;40937;53.594;10.034;2023-08-08T01:23:34;100902.38;;;14.46
55038;BMP280;40937;53.594;10.034;2023-08-08T01:26:08;100900.22;;;14.38
55038;BMP280;40937;53.594;10.034;2023-08-08T01:28:35;100893.91;;;14.44
55038;BMP280;40937;53.594;10.034;2023-08-08T01:31:03;100882.16;;;14.40
55038;BMP280;40937;53.594;10.034;2023-08-08T01:33:30;100891.97;;;14.40
55038;BMP280;40937;53.594;10.034;2023-08-08T01:36:03;100886.97;;;14.43
55038;BMP280;40937;53.594;10.034;2023-08-08T01:38:34;100885.88;;;14.39
55038;BMP280;40937;53.594;10.034;2023-08-08T01:41:04;100881.91;;;14.42
55038;BMP280;40937;53.594;10.034;2023-08-08T01:43:35;100882.50;;;14.44
55038;BMP280;40937;53.594;10.034;2023-08-08T01:46:04;100880.03;;;14.37
55038;BMP280;40937;53.594;10.034;2023-08-08T01:48:32;100875.81;;;14.41
55038;BMP280;40937;53.594;10.034;2023-08-08T01:50:59;100881.66;;;14.38
55038;BMP280;40937;53.594;10.034;2023-08-08T01:53:27;100877.38;;;14.37
55038;BMP280;40937;53.594;10.034;2023-08-08T01:55:54;100885.38;;;14.42
55038;BMP280;40937;53.594;10.034;2023-08-08T01:58:22;100884.31;;;14.43
55038;BMP280;40937;53.594;10.034;2023-08-08T02:00:50;100881.13;;;14.46
55038;BMP280;40937;53.594;10.034;2023-08-08T02:03:18;100868.94;;;14.45
55038;BMP280;40937;53.594;10.034;2023-08-08T02:05:45;100870.53;;;14.46
55038;BMP280;40937;53.594;10.034;2023-08-08T02:08:12;100869.78;;;14.51
55038;BMP280;40937;53.594;10.034;2023-08-08T02:10:40;100874.78;;;14.42
55038;BMP280;40937;53.594;10.034;2023-08-08T02:13:08;100870.25;;;14.43
55038;BMP280;40937;53.594;10.034;2023-08-08T02:15:35;100860.72;;;14.47
55038;BMP280;40937;53.594;10.034;2023-08-08T02:18:05;100863.34;;;14.42
55038;BMP280;40937;53.594;10.034;2023-08-08T02:20:33;100863.84;;;14.39
55038;BMP280;40937;53.594;10.034;2023-08-08T02:23:00;100863.34;;;14.42
55038;BMP280;40937;53.594;10.034;2023-08-08T02:25:28;100846.13;;;14.44
55038;BMP280;40937;53.594;10.034;2023-08-08T02:27:56;100862.28;;;14.38
55038;BMP280;40937;53.594;10.034;2023-08-08T02:30:24;100859.63;;;14.38
55038;BMP280;40937;53.594;10.034;2023-08-08T02:32:51;100857.16;;;14.31
55038;BMP280;40937;53.594;10.034;2023-08-08T02:35:20;100853.47;;;14.32
55038;BMP280;40937;53.594;10.034;2023-08-08T02:37:47;100848.72;;;14.39
55038;BMP280;40937;53.594;10.034;2023-08-08T02:40:15;100856.97;;;14.38
55038;BMP280;40937;53.594;10.034;2023-08-08T02:42:42;100849.19;;;14.26
55038;BMP280;40937;53.594;10.034;2023-08-08T02:45:10;100848.66;;;14.29
55038;BMP280;40937;53.594;10.034;2023-08-08T02:47:38;100840.72;;;14.34
55038;BMP280;40937;53.594;10.034;2023-08-08T02:50:06;100845.47;;;14.27
55038;BMP280;40937;53.594;10.034;2023-08-08T02:52:35;100853.09;;;14.18
55038;BMP280;40937;53.594;10.034;2023-08-08T02:55:02;100846.78;;;14.24
55038;BMP280;40937;53.594;10.034;2023-08-08T02:57:30;100849.19;;;14.26
55038;BMP280;40937;53.594;10.034;2023-08-08T02:59:58;100843.09;;;14.25
55038;BMP280;40937;53.594;10.034;2023-08-08T03:02:26;100848.38;;;14.25
55038;BMP280;40937;53.594;10.034;2023-08-08T03:04:54;100847.56;;;14.25
55038;BMP280;40937;53.594;10.034;2023-08-08T03:07:24;100848.03;;;14.17
55038;BMP280;40937;53.594;10.034;2023-08-08T03:09:53;100844.34;;;14.18
55038;BMP280;40937;53.594;10.034;2023-08-08T03:12:20;100834.22;;;14.15
55038;BMP280;40937;53.594;10.034;2023-08-08T03:14:50;100832.09;;;14.11
55038;BMP280;40937;53.594;10.034;2023-08-08T03:17:17;100833.75;;;14.23
55038;BMP280;40937;53.594;10.034;2023-08-08T03:19:45;100833.75;;;14.23
55038;BMP280;40937;53.594;10.034;2023-08-08T03:22:13;100832.69;;;14.19
55038;BMP280;40937;53.594;10.034;2023-08-08T03:24:41;100828.44;;;14.23
55038;BMP280;40937;53.594;10.034;2023-08-08T03:27:10;100825.03;;;14.27
55038;BMP280;40937;53.594;10.034;2023-08-08T03:29:38;100826.84;;;14.22
55038;BMP280;40937;53.594;10.034;2023-08-08T03:32:06;100829.75;;;14.20
55038;BMP280;40937;53.594;10.034;2023-08-08T03:34:33;100821.84;;;14.25
55038;BMP280;40937;53.594;10.034;2023-08-08T03:37:02;100812.59;;;14.33
55038;BMP280;40937;53.594;10.034;2023-08-08T03:39:30;100822.66;;;14.31
55038;BMP280;40937;53.594;10.034;2023-08-08T03:41:57;100818.38;;;14.25
55038;BMP280;40937;53.594;10.034;2023-08-08T03:44:26;100809.91;;;14.28
55038;BMP280;40937;53.594;10.034;2023-08-08T03:46:53;100823.13;;;14.23
55038;BMP280;40937;53.594;10.034;2023-08-08T03:49:21;100820.50;;;14.23
55038;BMP280;40937;53.594;10.034;2023-08-08T03:51:48;100821.00;;;14.20
55038;BMP280;40937;53.594;10.034;2023-08-08T03:54:17;100823.66;;;14.20
55038;BMP280;40937;53.594;10.034;2023-08-08T03:56:45;100820.78;;;14.26
55038;BMP280;40937;53.594;10.034;2023-08-08T03:59:12;100826.94;;;14.32
55038;BMP280;40937;53.594;10.034;2023-08-08T04:01:41;100822.66;;;14.26
55038;BMP280;40937;53.594;10.034;2023-08-08T04:04:08;100816.56;;;14.25
55038;BMP280;40937;53.594;10.034;2023-08-08T04:06:36;100812.28;;;14.24
55038;BMP280;40937;53.594;10.034;2023-08-08T04:09:03;100817.34;;;14.26
55038;BMP280;40937;53.594;10.034;2023-08-08T04:11:30;100819.72;;;14.27
55038;BMP280;40937;53.594;10.034;2023-08-08T04:13:58;100814.94;;;14.24
55038;BMP280;40937;53.594;10.034;2023-08-08T04:16:25;100809.09;;;14.27
55038;BMP280;40937;53.594;10.034;2023-08-08T04:18:54;100809.66;;;14.29
55038;BMP280;40937;53.594;10.034;2023-08-08T04:21:21;100817.84;;;14.28
55038;BMP280;40937;53.594;10.034;2023-08-08T04:23:49;100806.72;;;14.26
55038;BMP280;40937;53.594;10.034;2023-08-08T04:26:16;100814.16;;;14.24
55038;BMP280;40937;53.594;10.034;2023-08-08T04:28:44;100818.13;;;14.26
55038;BMP280;40937;53.594;10.034;2023-08-08T04:31:11;100813.13;;;14.30
55038;BMP280;40937;53.594;10.034;2023-08-08T04:33:39;100817.34;;;14.26
55038;BMP280;40937;53.594;10.034;2023-08-08T04:36:08;100814.63;;;14.21
55038;BMP280;40937;53.594;10.034;2023-08-08T04:38:36;100820.50;;;14.28
55038;BMP280;40937;53.594;10.034;2023-08-08T04:41:03;100805.72;;;14.32
55038;BMP280;40937;53.594;10.034;2023-08-08T04:43:30;100816.56;;;14.30
55038;BMP280;40937;53.594;10.034;2023-08-08T04:45:58;100816.81;;;14.29
55038;BMP280;40937;53.594;10.034;2023-08-08T04:48:25;100810.91;;;14.22
55038;BMP280;40937;53.594;10.034;2023-08-08T04:50:52;100818.38;;;14.25
55038;BMP280;40937;53.594;10.034;2023-08-08T04:53:21;100817.59;;;14.24
55038;BMP280;40937;53.594;10.034;2023-08-08T04:55:49;100818.59;;;14.18
55038;BMP280;40937;53.594;10.034;2023-08-08T04:58:16;100827.38;;;14.19
55038;BMP280;40937;53.594;10.034;2023-08-08T05:00:43;100820.22;;;14.19
55038;BMP280;40937;53.594;10.034;2023-08-08T05:03:11;100807.22;;;14.23
55038;BMP280;40937;53.594;10.034;2023-08-08T05:05:38;100818.94;;;14.27
55038;BMP280;40937;53.594;10.034;2023-08-08T05:08:05;100804.59;;;14.28
55038;BMP280;40937;53.594;10.034;2023-08-08T05:10:34;100798.19;;;14.19
55038;BMP280;40937;53.594;10.034;2023-08-08T05:13:01;100801.91;;;14.23
55038;BMP280;40937;53.594;10.034;2023-08-08T05:15:29;100799.28;;;14.28
55038;BMP280;40937;53.594;10.034;2023-08-08T05:17:56;100802.50;;;14.30
55038;BMP280;40937;53.594;10.034;2023-08-08T05:20:25;100805.19;;;14.35
55038;BMP280;40937;53.594;10.034;2023-08-08T05:22:52;100794.06;;;14.38
55038;BMP280;40937;53.594;10.034;2023-08-08T05:25:20;100804.94;;;14.37
55038;BMP280;40937;53.594;10.034;2023-08-08T05:27:48;100799.88;;;14.35
55038;BMP280;40937;53.594;10.034;2023-08-08T05:30:16;100797.22;;;14.40
55038;BMP280;40937;53.594;10.034;2023-08-08T05:32:44;100804.16;;;14.46
55038;BMP280;40937;53.594;10.034;2023-08-08T05:35:11;100799.44;;;14.48
55038;BMP280;40937;53.594;10.034;2023-08-08T05:37:38;100789.88;;;14.52
55038;BMP280;40937;53.594;10.034;2023-08-08T05:40:07;100803.72;;;14.55
55038;BMP280;40937;53.594;10.034;2023-08-08T05:42:36;100786.75;;;14.61
55038;BMP280;40937;53.594;10.034;2023-08-08T05:45:06;100806.91;;;14.62
55038;BMP280;40937;53.594;10.034;2023-08-08T05:47:34;100787.53;;;14.61
55038;BMP280;40937;53.594;10.034;2023-08-08T05:50:02;100793.69;;;14.67
55038;BMP280;40937;53.594;10.034;2023-08-08T05:52:29;100799.00;;;14.72
55038;BMP280;40937;53.594;10.034;2023-08-08T05:54:56;100793.19;;;14.75
55038;BMP280;40937;53.594;10.034;2023-08-08T05:57:25;100795.56;;;14.77
55038;BMP280;40937;53.594;10.034;2023-08-08T05:59:55;100793.19;;;14.75
55038;BMP280;40937;53.594;10.034;2023-08-08T06:02:30;100801.66;;;14.77
55038;BMP280;40937;53.594;10.034;2023-08-08T06:04:58;100798.50;;;14.80
55038;BMP280;40937;53.594;10.034;2023-08-08T06:07:31;100806.50;;;14.90
55038;BMP280;40937;53.594;10.034;2023-08-08T06:09:58;100802.25;;;14.89
55038;BMP280;40937;53.594;10.034;2023-08-08T06:12:26;100803.06;;;14.95
55038;BMP280;40937;53.594;10.034;2023-08-08T06:14:53;100803.34;;;14.99
55038;BMP280;40937;53.594;10.034;2023-08-08T06:17:21;100811.56;;;14.97
55038;BMP280;40937;53.594;10.034;2023-08-08T06:19:50;100802.78;;;14.91
55038;BMP280;40937;53.594;10.034;2023-08-08T06:22:19;100810.50;;;14.93
55038;BMP280;40937;53.594;10.034;2023-08-08T06:24:47;100796.44;;;14.98
55038;BMP280;40937;53.594;10.034;2023-08-08T06:27:14;100799.63;;;15.00
55038;BMP280;40937;53.594;10.034;2023-08-08T06:29:41;100800.16;;;15.07
55038;BMP280;40937;53.594;10.034;2023-08-08T06:32:09;100801.28;;;15.16
55038;BMP280;40937;53.594;10.034;2023-08-08T06:34:36;100795.72;;;15.28
55038;BMP280;40937;53.594;10.034;2023-08-08T06:37:05;100797.03;;;15.30
55038;BMP280;40937;53.594;10.034;2023-08-08T06:39:33;100790.13;;;15.34
55038;BMP280;40937;53.594;10.034;2023-08-08T06:42:07;100804.75;;;15.42
55038;BMP280;40937;53.594;10.034;2023-08-08T06:44:51;100797.56;;;15.43
55038;BMP280;40937;53.594;10.034;2023-08-08T06:47:20;100792.81;;;15.45
55038;BMP280;40937;53.594;10.034;2023-08-08T06:49:49;100797.03;;;15.46
55038;BMP280;40937;53.594;10.034;2023-08-08T06:52:21;100798.63;;;15.47
55038;BMP280;40937;53.594;10.034;2023-08-08T06:54:49;100793.88;;;15.54
55038;BMP280;40937;53.594;10.034;2023-08-08T06:57:17;100798.13;;;15.60
55038;BMP280;40937;53.594;10.034;2023-08-08T06:59:44;100789.09;;;15.61
55038;BMP280;40937;53.594;10.034;2023-08-08T07:02:16;100785.38;;;15.62
55038;BMP280;40937;53.594;10.034;2023-08-08T07:04:44;100774.19;;;15.65
55038;BMP280;40937;53.594;10.034;2023-08-08T07:07:15;100800.78;;;15.76
55038;BMP280;40937;53.594;10.034;2023-08-08T07:09:47;100787.47;;;15.81
55038;BMP280;40937;53.594;10.034;2023-08-08T07:12:15;100778.97;;;15.79
55038;BMP280;40937;53.594;10.034;2023-08-08T07:14:42;100789.06;;;15.82
55038;BMP280;40937;53.594;10.034;2023-08-08T07:17:11;100773.63;;;15.89
55038;BMP280;40937;53.594;10.034;2023-08-08T07:19:39;100777.88;;;15.95
55038;BMP280;40937;53.594;10.034;2023-08-08T07:22:11;100778.94;;;15.99
55038;BMP280;40937;53.594;10.034;2023-08-08T07:24:39;100773.06;;;16.07
55038;BMP280;40937;53.594;10.034;2023-08-08T07:27:08;100779.97;;;16.13
55038;BMP280;40937;53.594;10.034;2023-08-08T07:29:37;100765.09;;;16.18
55038;BMP280;40937;53.594;10.034;2023-08-08T07:32:05;100764.53;;;16.21
55038;BMP280;40937;53.594;10.034;2023-08-08T07:34:35;100767.94;;;16.26
55038;BMP280;40937;53.594;10.034;2023-08-08T07:37:06;100760.75;;;16.32
55038;BMP280;40937;53.594;10.034;2023-08-08T07:39:43;100763.38;;;16.37
55038;BMP280;40937;53.594;10.034;2023-08-08T07:42:19;100763.91;;;16.44
55038;BMP280;40937;53.594;10.034;2023-08-08T07:44:47;100751.09;;;16.46
55038;BMP280;40937;53.594;10.034;2023-08-08T07:47:14;100754.81;;;16.45
55038;BMP280;40937;53.594;10.034;2023-08-08T07:49:42;100739.91;;;16.49
55038;BMP280;40937;53.594;10.034;2023-08-08T07:52:12;100752.72;;;16.47
55038;BMP280;40937;53.594;10.034;2023-08-08T07:54:41;100744.16;;;16.55
55038;BMP280;40937;53.594;10.034;2023-08-08T07:57:12;100738.50;;;16.62
55038;BMP280;40937;53.594;10.034;2023-08-08T07:59:40;100755.25;;;16.68
55038;BMP280;40937;53.594;10.034;2023-08-08T08:02:09;100749.66;;;16.69
55038;BMP280;40937;53.594;10.034;2023-08-08T08:04:37;100743.56;;;16.69
55038;BMP280;40937;53.594;10.034;2023-08-08T08:07:07;100751.50;;;16.74
55038;BMP280;40937;53.594;10.034;2023-08-08T08:09:36;100755.22;;;16.73
55038;BMP280;40937;53.594;10.034;2023-08-08T08:12:05;100745.66;;;16.72
55038;BMP280;40937;53.594;10.034;2023-08-08T08:14:37;100729.09;;;16.80
55038;BMP280;40937;53.594;10.034;2023-08-08T08:17:09;100731.94;;;16.89
55038;BMP280;40937;53.594;10.034;2023-08-08T08:19:37;100741.03;;;16.88
55038;BMP280;40937;53.594;10.034;2023-08-08T08:22:09;100733.31;;;16.86
55038;BMP280;40937;53.594;10.034;2023-08-08T08:24:37;100735.47;;;16.79
55038;BMP280;40937;53.594;10.034;2023-08-08T08:27:05;100744.84;;;16.76
55038;BMP280;40937;53.594;10.034;2023-08-08T08:29:38;100750.47;;;16.70
55038;BMP280;40937;53.594;10.034;2023-08-08T08:32:11;100756.88;;;16.69
55038;BMP280;40937;53.594;10.034;2023-08-08T08:34:40;100771.25;;;16.68
55038;BMP280;40937;53.594;10.034;2023-08-08T08:37:11;100761.94;;;16.70
55038;BMP280;40937;53.594;10.034;2023-08-08T08:39:42;100782.97;;;16.62
55038;BMP280;40937;53.594;10.034;2023-08-08T08:42:13;100777.91;;;16.70
55038;BMP280;40937;53.594;10.034;2023-08-08T08:44:47;100784.06;;;16.61
55038;BMP280;40937;53.594;10.034;2023-08-08T08:47:19;100786.72;;;16.66
55038;BMP280;40937;53.594;10.034;2023-08-08T08:49:49;100788.34;;;16.51
55038;BMP280;40937;53.594;10.034;2023-08-08T08:52:19;100781.44;;;16.55
55038;BMP280;40937;53.594;10.034;2023-08-08T08:54:53;100775.34;;;16.45
55038;BMP280;40937;53.594;10.034;2023-08-08T08:57:21;100773.00;;;16.38
55038;BMP280;40937;53.594;10.034;2023-08-08T08:59:58;100771.91;;;16.39
55038;BMP280;40937;53.594;10.034;2023-08-08T09:02:26;100778.81;;;16.40
55038;BMP280;40937;53.594;10.034;2023-08-08T09:04:58;100775.63;;;16.43
55038;BMP280;40937;53.594;10.034;2023-08-08T09:07:29;100784.09;;;16.45
55038;BMP280;40937;53.594;10.034;2023-08-08T09:10:00;100781.44;;;16.45
55038;BMP280;40937;53.594;10.034;2023-08-08T09:12:30;100783.06;;;16.46
55038;BMP280;40937;53.594;10.034;2023-08-08T09:15:02;100782.00;;;16.42
55038;BMP280;40937;53.594;10.034;2023-08-08T09:17:32;100788.41;;;16.41
55038;BMP280;40937;53.594;10.034;2023-08-08T09:20:01;100779.06;;;16.49
55038;BMP280;40937;53.594;10.034;2023-08-08T09:22:32;100785.41;;;16.58
55038;BMP280;40937;53.594;10.034;2023-08-08T09:25:03;100791.56;;;16.53
55038;BMP280;40937;53.594;10.034;2023-08-08T09:27:33;100778.25;;;16.53
55038;BMP280;40937;53.594;10.034;2023-08-08T09:30:06;100788.34;;;16.51
55038;BMP280;40937;53.594;10.034;2023-08-08T09:32:37;100784.59;;;16.57
55038;BMP280;40937;53.594;10.034;2023-08-08T09:35:09;100784.06;;;16.66
55038;BMP280;40937;53.594;10.034;2023-08-08T09:37:38;100775.56;;;16.59
55038;BMP280;40937;53.594;10.034;2023-08-08T09:40:07;100790.19;;;16.61
55038;BMP280;40937;53.594;10.034;2023-08-08T09:42:40;100785.97;;;16.55
55038;BMP280;40937;53.594;10.034;2023-08-08T09:45:11;100785.22;;;16.44
55038;BMP280;40937;53.594;10.034;2023-08-08T09:47:39;100800.13;;;16.35
55038;BMP280;40937;53.594;10.034;2023-08-08T09:50:08;100788.94;;;16.43
55038;BMP280;40937;53.594;10.034;2023-08-08T09:52:42;100805.44;;;16.50
55038;BMP280;40937;53.594;10.034;2023-08-08T09:55:12;100809.19;;;16.39
55038;BMP280;40937;53.594;10.034;2023-08-08T09:57:42;100804.22;;;16.12
55038;BMP280;40937;53.594;10.034;2023-08-08T10:00:16;100801.81;;;16.10
55038;BMP280;40937;53.594;10.034;2023-08-08T10:02:47;100807.41;;;15.99
55038;BMP280;40937;53.594;10.034;2023-08-08T10:05:16;100806.59;;;16.03
55038;BMP280;40937;53.594;10.034;2023-08-08T10:07:49;100807.66;;;15.97
55038;BMP280;40937;53.594;10.034;2023-08-08T10:10:18;100825.25;;;15.78
55038;BMP280;40937;53.594;10.034;2023-08-08T10:12:50;100808.50;;;15.82
55038;BMP280;40937;53.594;10.034;2023-08-08T10:15:27;100813.00;;;15.92
55038;BMP280;40937;53.594;10.034;2023-08-08T10:17:57;100809.00;;;15.89
55038;BMP280;40937;53.594;10.034;2023-08-08T10:20:26;100793.59;;;15.91
55038;BMP280;40937;53.594;10.034;2023-08-08T10:22:56;100778.16;;;15.93
55038;BMP280;40937;53.594;10.034;2023-08-08T10:25:25;100784.53;;;15.98
55038;BMP280;40937;53.594;10.034;2023-08-08T10:28:05;100787.75;;;15.94
55038;BMP280;40937;53.594;10.034;2023-08-08T10:30:43;100795.97;;;15.93
55038;BMP280;40937;53.594;10.034;2023-08-08T10:33:18;100800.75;;;15.91
55038;BMP280;40937;53.594;10.034;2023-08-08T10:35:58;100803.94;;;15.88
55038;BMP280;40937;53.594;10.034;2023-08-08T10:38:27;100800.75;;;15.86
55038;BMP280;40937;53.594;10.034;2023-08-08T10:40:57;100791.97;;;15.90
55038;BMP280;40937;53.594;10.034;2023-08-08T10:43:26;100792.00;;;15.85
55038;BMP280;40937;53.594;10.034;2023-08-08T10:45:56;100795.47;;;15.96
55038;BMP280;40937;53.594;10.034;2023-08-08T10:48:24;100800.25;;;15.99
55038;BMP280;40937;53.594;10.034;2023-08-08T10:50:54;100798.13;;;15.96
55038;BMP280;40937;53.594;10.034;2023-08-08T10:53:22;100803.69;;;15.94
55038;BMP280;40937;53.594;10.034;2023-08-08T10:55:57;100794.63;;;15.95
55038;BMP280;40937;53.594;10.034;2023-08-08T10:58:35;100797.59;;;15.84
55038;BMP280;40937;53.594;10.034;2023-08-08T11:01:05;100807.69;;;15.61
55038;BMP280;40937;53.594;10.034;2023-08-08T11:03:35;100800.22;;;15.43
55038;BMP280;40937;53.594;10.034;2023-08-08T11:06:03;100807.16;;;15.49
55038;BMP280;40937;53.594;10.034;2023-08-08T11:08:31;100807.72;;;15.56
55038;BMP280;40937;53.594;10.034;2023-08-08T11:10:59;100792.28;;;15.63
55038;BMP280;40937;53.594;10.034;2023-08-08T11:13:26;100794.41;;;15.71
55038;BMP280;40937;53.594;10.034;2023-08-08T11:15:53;100775.25;;;15.69
55038;BMP280;40937;53.594;10.034;2023-08-08T11:18:22;100781.09;;;15.61
55038;BMP280;40937;53.594;10.034;2023-08-08T11:20:51;100781.63;;;15.63
55038;BMP280;40937;53.594;10.034;2023-08-08T11:23:19;100784.03;;;15.65
55038;BMP280;40937;53.594;10.034;2023-08-08T11:25:47;100803.97;;;15.57
55038;BMP280;40937;53.594;10.034;2023-08-08T11:28:16;100788.56;;;15.44
55038;BMP280;40937;53.594;10.034;2023-08-08T11:30:45;100798.13;;;15.60
55038;BMP280;40937;53.594;10.034;2023-08-08T11:33:13;100799.44;;;15.58
55038;BMP280;40937;53.594;10.034;2023-08-08T11:35:45;100788.03;;;15.57
55038;BMP280;40937;53.594;10.034;2023-08-08T11:38:15;100790.13;;;15.34
55038;BMP280;40937;53.594;10.034;2023-08-08T11:40:43;100791.47;;;15.52
55038;BMP280;40937;53.594;10.034;2023-08-08T11:43:11;100788.56;;;15.69
55038;BMP280;40937;53.594;10.034;2023-08-08T11:45:39;100777.91;;;15.85
55038;BMP280;40937;53.594;10.034;2023-08-08T11:48:08;100790.41;;;15.84
55038;BMP280;40937;53.594;10.034;2023-08-08T11:50:37;100789.06;;;15.92
55038;BMP280;40937;53.594;10.034;2023-08-08T11:53:06;100778.16;;;15.93
55038;BMP280;40937;53.594;10.034;2023-08-08T11:55:36;100794.91;;;15.99
55038;BMP280;40937;53.594;10.034;2023-08-08T11:58:04;100795.94;;;16.03
55038;BMP280;40937;53.594;10.034;2023-08-08T12:00:31;100799.41;;;16.09
55038;BMP280;40937;53.594;10.034;2023-08-08T12:03:01;100800.97;;;16.20
55038;BMP280;40937;53.594;10.034;2023-08-08T12:05:36;100787.94;;;16.24
55038;BMP280;40937;53.594;10.034;2023-08-08T12:08:06;100770.34;;;16.28
55038;BMP280;40937;53.594;10.034;2023-08-08T12:10:33;100770.84;;;16.35
55038;BMP280;40937;53.594;10.034;2023-08-08T12:13:01;100775.09;;;16.36
55038;BMP280;40937;53.594;10.034;2023-08-08T12:15:29;100773.25;;;16.36
55038;BMP280;40937;53.594;10.034;2023-08-08T12:17:58;100780.69;;;16.45
55038;BMP280;40937;53.594;10.034;2023-08-08T12:20:28;100775.59;;;16.48
55038;BMP280;40937;53.594;10.034;2023-08-08T12:22:57;100774.47;;;16.65
55038;BMP280;40937;53.594;10.034;2023-08-08T12:25:25;100769.94;;;16.65
55038;BMP280;40937;53.594;10.034;2023-08-08T12:27:53;100762.66;;;16.81
55038;BMP280;40937;53.594;10.034;2023-08-08T12:30:20;100759.38;;;16.94
55038;BMP280;40937;53.594;10.034;2023-08-08T12:32:47;100748.66;;;16.99
55038;BMP280;40937;53.594;10.034;2023-08-08T12:35:18;100743.25;;;17.10
55038;BMP280;40937;53.594;10.034;2023-08-08T12:37:47;100753.31;;;17.23
55038;BMP280;40937;53.594;10.034;2023-08-08T12:40:18;100744.66;;;17.36
55038;BMP280;40937;53.594;10.034;2023-08-08T12:42:48;100746.13;;;17.53
55038;BMP280;40937;53.594;10.034;2023-08-08T12:45:16;100751.31;;;17.68
55038;BMP280;40937;53.594;10.034;2023-08-08T12:47:43;100740.97;;;17.86
55038;BMP280;40937;53.594;10.034;2023-08-08T12:50:11;100747.28;;;17.95
55038;BMP280;40937;53.594;10.034;2023-08-08T12:52:39;100747.41;;;18.09
55038;BMP280;40937;53.594;10.034;2023-08-08T12:55:07;100754.00;;;18.16
55038;BMP280;40937;53.594;10.034;2023-08-08T12:57:37;100737.03;;;18.26
55038;BMP280;40937;53.594;10.034;2023-08-08T13:00:11;100740.00;;;18.24
55038;BMP280;40937;53.594;10.034;2023-08-08T13:02:39;100773.53;;;18.12
55038;BMP280;40937;53.594;10.034;2023-08-08T13:05:08;100783.13;;;17.89
55038;BMP280;40937;53.594;10.034;2023-08-08T13:07:36;100804.00;;;17.52
55038;BMP280;40937;53.594;10.034;2023-08-08T13:10:05;100790.72;;;17.13
55038;BMP280;40937;53.594;10.034;2023-08-08T13:12:33;100792.94;;;16.95
55038;BMP280;40937;53.594;10.034;2023-08-08T13:15:04;100794.66;;;16.76
55038;BMP280;40937;53.594;10.034;2023-08-08T13:17:34;100780.84;;;16.69
55038;BMP280;40937;53.594;10.034;2023-08-08T13:20:02;100780.28;;;16.72
55038;BMP280;40937;53.594;10.034;2023-08-08T13:22:30;100777.84;;;16.81
55038;BMP280;40937;53.594;10.034;2023-08-08T13:24:59;100770.34;;;16.83
55038;BMP280;40937;53.594;10.034;2023-08-08T13:27:27;100766.75;;;17.08
55038;BMP280;40937;53.594;10.034;2023-08-08T13:29:56;100768.19;;;17.29
55038;BMP280;40937;53.594;10.034;2023-08-08T13:32:27;100769.03;;;17.54
55038;BMP280;40937;53.594;10.034;2023-08-08T13:35:00;100760.78;;;17.79
55038;BMP280;40937;53.594;10.034;2023-08-08T13:37:33;100770.69;;;18.03
55038;BMP280;40937;53.594;10.034;2023-08-08T13:40:01;100768.81;;;18.28
55038;BMP280;40937;53.594;10.034;2023-08-08T13:42:30;100778.25;;;18.39
55038;BMP280;40937;53.594;10.034;2023-08-08T13:44:57;100775.47;;;18.49
55038;BMP280;40937;53.594;10.034;2023-08-08T13:47:24;100772.72;;;18.54
55038;BMP280;40937;53.594;10.034;2023-08-08T13:49:52;100770.41;;;18.48
55038;BMP280;40937;53.594;10.034;2023-08-08T13:52:20;100769.94;;;18.21
55038;BMP280;40937;53.594;10.034;2023-08-08T13:54:48;100812.13;;;17.71